createdAt,value
2023-07-03T00:00:59.677Z,90.10
2023-07-03T00:03:29.049Z,90.00
2023-07-03T00:05:56.714Z,90.00
2023-07-03T00:08:24.031Z,90.10
2023-07-03T00:10:51.194Z,90.20
2023-07-03T00:13:18.565Z,90.30
2023-07-03T00:15:46.020Z,90.40
2023-07-03T00:18:13.404Z,90.50
2023-07-03T00:20:40.870Z,90.50
2023-07-03T00:23:08.214Z,90.60
2023-07-03T00:25:35.655Z,90.70
2023-07-03T00:28:03.054Z,90.80
2023-07-03T00:30:30.601Z,90.90
2023-07-03T00:32:58.149Z,91.00
2023-07-03T00:35:25.441Z,91.10
2023-07-03T00:37:52.834Z,91.10
2023-07-03T00:40:20.413Z,91.30
2023-07-03T00:42:47.844Z,91.40
2023-07-03T00:45:15.231Z,91.50
2023-07-03T00:47:43.000Z,91.60
2023-07-03T00:50:11.413Z,91.60
2023-07-03T00:52:41.256Z,91.80
2023-07-03T00:55:11.661Z,91.90
2023-07-03T00:57:39.213Z,91.90
2023-07-03T01:00:07.684Z,92.10
2023-07-03T01:02:50.143Z,92.20
2023-07-03T01:05:31.561Z,92.50
2023-07-03T01:08:02.310Z,92.30
2023-07-03T01:10:32.636Z,92.40
2023-07-03T01:13:07.949Z,92.60
2023-07-03T01:15:41.867Z,92.70
2023-07-03T01:18:10.732Z,92.70
2023-07-03T01:20:46.489Z,92.70
2023-07-03T01:23:46.449Z,93.00
2023-07-03T01:26:17.433Z,92.80
2023-07-03T01:28:47.568Z,93.30
2023-07-03T01:31:19.705Z,93.10
2023-07-03T01:33:47.590Z,93.10
2023-07-03T01:36:17.146Z,93.20
2023-07-03T01:38:47.263Z,93.30
2023-07-03T01:41:19.087Z,93.40
2023-07-03T01:43:48.490Z,93.50
2023-07-03T01:46:17.459Z,93.50
2023-07-03T01:48:45.452Z,93.50
2023-07-03T01:51:33.598Z,93.50
2023-07-03T01:54:13.661Z,93.80
2023-07-03T01:56:46.130Z,93.90
2023-07-03T01:59:19.290Z,94.00
2023-07-03T02:02:28.112Z,94.00
2023-07-03T02:05:10.625Z,94.20
2023-07-03T02:07:42.160Z,94.50
2023-07-03T02:10:10.542Z,94.30
2023-07-03T02:12:38.196Z,94.40
2023-07-03T02:15:07.621Z,94.50
2023-07-03T02:17:35.394Z,94.60
2023-07-03T02:20:02.718Z,94.70
2023-07-03T02:22:30.153Z,94.80
2023-07-03T02:24:57.637Z,94.90
2023-07-03T02:27:24.975Z,95.10
2023-07-03T02:29:52.570Z,95.10
2023-07-03T02:32:20.347Z,95.30
2023-07-03T02:34:47.752Z,95.50
2023-07-03T02:37:15.404Z,95.60
2023-07-03T02:39:42.728Z,95.80
2023-07-03T02:42:10.343Z,95.80
2023-07-03T02:44:37.913Z,96.10
2023-07-03T02:47:06.520Z,96.20
2023-07-03T02:49:34.047Z,96.40
2023-07-03T02:52:01.489Z,96.50
2023-07-03T02:54:28.843Z,96.70
2023-07-03T02:56:56.297Z,97.00
2023-07-03T02:59:31.439Z,97.00
2023-07-03T03:01:58.805Z,97.40
2023-07-03T03:04:27.113Z,97.20
2023-07-03T03:06:55.126Z,97.40
2023-07-03T03:09:22.508Z,97.80
2023-07-03T03:11:50.086Z,97.90
2023-07-03T03:14:17.535Z,98.20
2023-07-03T03:16:45.054Z,98.20
2023-07-03T03:19:12.779Z,98.40
2023-07-03T03:21:40.755Z,98.60
2023-07-03T03:24:11.541Z,98.70
2023-07-03T03:26:39.059Z,99.00
2023-07-03T03:29:06.444Z,99.00
2023-07-03T03:31:33.981Z,99.20
2023-07-03T03:34:01.863Z,99.40
2023-07-03T03:36:29.215Z,99.60
2023-07-03T03:38:56.615Z,99.80
2023-07-03T03:41:23.950Z,99.90
2023-07-03T03:43:51.467Z,99.90
2023-07-03T03:46:18.999Z,99.90
2023-07-03T03:48:46.898Z,99.90
2023-07-03T03:51:14.424Z,99.90
2023-07-03T03:53:41.977Z,99.90
2023-07-03T03:56:09.466Z,99.90
2023-07-03T03:58:37.285Z,99.90
2023-07-03T04:01:04.824Z,99.90
2023-07-03T04:03:35.365Z,99.90
2023-07-03T04:06:02.846Z,99.90
2023-07-03T04:08:32.097Z,99.90
2023-07-03T04:10:59.587Z,99.90
2023-07-03T04:13:27.328Z,99.90
2023-07-03T04:15:55.504Z,99.90
2023-07-03T04:18:24.824Z,99.90
2023-07-03T04:20:52.981Z,99.90
2023-07-03T04:23:20.747Z,99.90
2023-07-03T04:25:50.503Z,99.90
2023-07-03T04:28:22.353Z,99.90
2023-07-03T04:30:50.253Z,99.90
2023-07-03T04:33:18.353Z,99.90
2023-07-03T04:35:49.320Z,99.90
2023-07-03T04:38:25.301Z,99.90
2023-07-03T04:40:56.049Z,99.90
2023-07-03T04:43:24.314Z,99.90
2023-07-03T04:46:05.079Z,99.90
2023-07-03T04:48:32.966Z,99.90
2023-07-03T04:51:00.866Z,99.90
2023-07-03T04:53:28.391Z,99.90
2023-07-03T04:55:55.732Z,99.90
2023-07-03T04:58:23.365Z,99.90
2023-07-03T05:00:50.949Z,99.90
2023-07-03T05:03:18.803Z,99.90
2023-07-03T05:05:46.327Z,99.90
2023-07-03T05:08:13.845Z,99.90
2023-07-03T05:10:41.199Z,99.90
2023-07-03T05:13:09.032Z,99.90
2023-07-03T05:15:36.613Z,99.90
2023-07-03T05:18:04.323Z,99.90
2023-07-03T05:20:33.026Z,99.90
2023-07-03T05:23:00.577Z,99.90
2023-07-03T05:25:28.116Z,99.90
2023-07-03T05:27:55.570Z,99.90
2023-07-03T05:30:22.844Z,99.90
2023-07-03T05:32:50.440Z,99.90
2023-07-03T05:35:18.423Z,99.90
2023-07-03T05:37:45.911Z,99.90
2023-07-03T05:40:16.400Z,99.90
2023-07-03T05:42:44.703Z,99.90
2023-07-03T05:45:12.676Z,99.90
2023-07-03T05:47:40.260Z,99.90
2023-07-03T05:50:08.842Z,99.90
2023-07-03T05:52:41.123Z,99.90
2023-07-03T05:55:09.239Z,99.90
2023-07-03T05:57:36.718Z,99.90
2023-07-03T06:00:12.430Z,99.90
2023-07-03T06:02:43.790Z,99.90
2023-07-03T06:05:13.465Z,99.90
2023-07-03T06:07:41.890Z,99.90
2023-07-03T06:10:10.201Z,99.90
2023-07-03T06:12:38.015Z,99.90
2023-07-03T06:15:06.183Z,99.90
2023-07-03T06:17:34.178Z,99.90
2023-07-03T06:20:01.438Z,99.90
2023-07-03T06:22:32.038Z,99.90
2023-07-03T06:24:59.738Z,99.90
2023-07-03T06:27:27.248Z,99.90
2023-07-03T06:29:54.520Z,99.90
2023-07-03T06:32:22.187Z,99.90
2023-07-03T06:34:49.693Z,99.90
2023-07-03T06:37:17.287Z,99.90
2023-07-03T06:39:44.660Z,99.90
2023-07-03T06:42:12.295Z,99.90
2023-07-03T06:44:41.653Z,99.90
2023-07-03T06:47:09.338Z,99.90
2023-07-03T06:49:38.078Z,99.90
2023-07-03T06:52:11.833Z,99.90
2023-07-03T06:54:42.015Z,99.90
2023-07-03T06:57:09.551Z,99.90
2023-07-03T06:59:36.822Z,99.90
2023-07-03T07:02:05.970Z,99.90
2023-07-03T07:04:34.007Z,99.90
2023-07-03T07:07:01.422Z,99.90
2023-07-03T07:09:28.718Z,99.90
2023-07-03T07:11:56.154Z,99.20
2023-07-03T07:14:25.086Z,98.20
2023-07-03T07:16:52.769Z,97.70
2023-07-03T07:19:25.576Z,97.40
2023-07-03T07:21:56.136Z,96.10
2023-07-03T07:24:29.264Z,95.40
2023-07-03T07:26:57.023Z,94.60
2023-07-03T07:29:26.576Z,93.90
2023-07-03T07:31:58.660Z,93.50
2023-07-03T07:34:28.616Z,92.80
2023-07-03T07:36:55.879Z,92.70
2023-07-03T07:39:27.985Z,92.00
2023-07-03T07:41:56.910Z,91.50
2023-07-03T07:44:24.303Z,91.10
2023-07-03T07:46:51.799Z,90.50
2023-07-03T07:49:19.336Z,90.30
2023-07-03T07:51:46.482Z,90.20
2023-07-03T07:54:13.756Z,89.60
2023-07-03T07:56:41.343Z,88.10
2023-07-03T07:59:08.890Z,86.90
2023-07-03T08:01:40.588Z,87.20
2023-07-03T08:04:07.989Z,87.40
2023-07-03T08:06:35.253Z,85.90
2023-07-03T08:09:02.777Z,84.80
2023-07-03T08:11:30.254Z,84.70
2023-07-03T08:13:57.777Z,84.10
2023-07-03T08:16:25.088Z,84.60
2023-07-03T08:18:52.636Z,84.20
2023-07-03T08:21:22.588Z,81.70
2023-07-03T08:23:50.054Z,79.40
2023-07-03T08:26:24.604Z,79.60
2023-07-03T08:28:52.084Z,79.10
2023-07-03T08:31:19.964Z,78.70
2023-07-03T08:33:47.453Z,77.30
2023-07-03T08:38:46.135Z,76.50
2023-07-03T08:41:14.790Z,77.30
2023-07-03T08:43:48.138Z,78.30
2023-07-03T08:46:29.111Z,79.00
2023-07-03T08:49:05.427Z,79.00
2023-07-03T08:51:38.386Z,80.00
2023-07-03T08:54:18.964Z,81.40
2023-07-03T08:56:47.884Z,80.80
2023-07-03T08:59:17.155Z,81.10
2023-07-03T09:02:46.625Z,80.60
2023-07-03T09:05:41.906Z,79.20
2023-07-03T09:08:24.827Z,79.00
2023-07-03T09:10:52.705Z,77.80
2023-07-03T09:13:37.591Z,77.20
2023-07-03T09:16:22.628Z,75.90
2023-07-03T09:18:58.202Z,74.40
2023-07-03T09:21:28.716Z,74.60
2023-07-03T09:24:15.506Z,74.80
2023-07-03T09:27:06.557Z,73.50
2023-07-03T09:29:37.819Z,72.50
2023-07-03T09:32:05.833Z,72.90
2023-07-03T09:35:13.597Z,73.70
2023-07-03T09:37:46.100Z,73.10
2023-07-03T09:40:28.192Z,73.20
2023-07-03T09:42:55.845Z,72.80
2023-07-03T09:45:34.518Z,72.50
2023-07-03T09:48:11.508Z,72.50
2023-07-03T09:50:57.320Z,72.60
2023-07-03T09:53:32.032Z,73.00
2023-07-03T09:56:04.364Z,73.50
2023-07-03T09:58:32.404Z,72.60
2023-07-03T10:01:02.190Z,71.00
2023-07-03T10:03:36.107Z,69.60
2023-07-03T10:11:40.819Z,68.40
2023-07-03T10:14:15.424Z,66.90
2023-07-03T10:16:44.270Z,66.00
2023-07-03T10:19:12.383Z,65.90
2023-07-03T10:21:41.527Z,65.50
2023-07-03T10:24:28.361Z,65.00
2023-07-03T10:27:01.733Z,63.40
2023-07-03T10:29:38.838Z,64.10
2023-07-03T10:32:17.319Z,64.50
2023-07-03T10:34:55.713Z,64.70
2023-07-03T10:37:26.454Z,63.80
2023-07-03T10:40:18.716Z,63.90
2023-07-03T10:43:03.151Z,62.50
2023-07-03T10:45:37.536Z,61.50
2023-07-03T10:48:19.089Z,61.80
2023-07-03T10:51:19.800Z,61.90
2023-07-03T10:53:59.466Z,62.30
2023-07-03T10:56:49.321Z,62.10
2023-07-03T10:59:27.250Z,62.00
2023-07-03T11:02:21.711Z,62.20
2023-07-03T11:05:15.431Z,60.70
2023-07-03T11:08:10.364Z,61.50
2023-07-03T11:10:54.800Z,61.70
2023-07-03T11:14:06.073Z,61.70
2023-07-03T11:17:27.802Z,61.40
2023-07-03T11:23:45.977Z,60.90
2023-07-03T11:29:12.682Z,59.70
2023-07-03T11:31:46.920Z,60.00
2023-07-03T11:37:03.487Z,60.40
2023-07-03T11:44:48.341Z,59.90
2023-07-03T11:47:31.624Z,59.20
2023-07-03T11:50:06.563Z,59.00
2023-07-03T11:52:46.774Z,58.80
2023-07-03T11:55:22.699Z,58.70
2023-07-03T11:58:14.472Z,58.50
2023-07-03T12:00:45.210Z,57.90
2023-07-03T12:03:12.587Z,58.40
2023-07-03T12:05:51.697Z,58.00
2023-07-03T12:08:28.501Z,57.20
2023-07-03T12:11:01.979Z,56.90
2023-07-03T12:13:42.872Z,57.00
2023-07-03T12:16:24.685Z,56.90
2023-07-03T12:19:02.659Z,56.30
2023-07-03T12:21:50.806Z,56.70
2023-07-03T12:24:25.215Z,56.00
2023-07-03T12:27:03.659Z,56.20
2023-07-03T12:29:34.474Z,55.80
2023-07-03T12:32:09.020Z,55.80
2023-07-03T12:34:41.100Z,55.10
2023-07-03T12:37:25.571Z,54.80
2023-07-03T12:39:53.399Z,54.70
2023-07-03T12:42:26.379Z,54.90
2023-07-03T12:44:54.963Z,54.30
2023-07-03T12:47:23.600Z,54.30
2023-07-03T12:50:01.293Z,53.60
2023-07-03T12:52:32.780Z,53.20
2023-07-03T12:55:13.646Z,53.50
2023-07-03T12:57:43.515Z,53.40
2023-07-03T13:00:24.577Z,53.60
2023-07-03T13:02:52.048Z,53.50
2023-07-03T13:05:26.940Z,54.30
2023-07-03T13:08:02.352Z,54.50
2023-07-03T13:10:32.284Z,54.40
2023-07-03T13:13:20.408Z,54.30
2023-07-03T13:15:51.189Z,54.00
2023-07-03T13:18:24.165Z,54.30
2023-07-03T13:21:04.803Z,54.70
2023-07-03T13:23:44.472Z,55.30
2023-07-03T13:26:25.504Z,55.80
2023-07-03T13:29:09.292Z,56.00
2023-07-03T13:31:51.332Z,56.10
2023-07-03T13:34:24.351Z,56.10
2023-07-03T13:36:58.510Z,55.90
2023-07-03T13:39:29.083Z,55.90
2023-07-03T13:41:57.874Z,55.90
2023-07-03T13:44:26.579Z,56.00
2023-07-03T13:46:55.291Z,56.20
2023-07-03T13:49:23.164Z,56.50
2023-07-03T13:51:52.572Z,56.50
2023-07-03T13:54:20.180Z,56.40
2023-07-03T13:56:47.544Z,56.50
2023-07-03T13:59:14.998Z,56.80
2023-07-03T14:01:44.388Z,56.80
2023-07-03T14:04:13.557Z,56.50
2023-07-03T14:06:41.155Z,56.50
2023-07-03T14:09:12.311Z,56.00
2023-07-03T14:11:39.618Z,55.80
2023-07-03T14:14:08.949Z,55.90
2023-07-03T14:16:36.307Z,55.90
2023-07-03T14:19:06.661Z,56.20
2023-07-03T14:21:36.496Z,55.80
2023-07-03T14:24:06.268Z,55.90
2023-07-03T14:26:33.504Z,56.00
2023-07-03T14:29:00.621Z,56.50
2023-07-03T14:31:28.468Z,56.50
2023-07-03T14:33:55.885Z,56.70
2023-07-03T14:36:23.241Z,56.90
2023-07-03T14:38:52.245Z,57.00
2023-07-03T14:41:19.824Z,57.10
2023-07-03T14:43:47.149Z,57.20
2023-07-03T14:46:14.359Z,57.20
2023-07-03T14:48:41.649Z,57.30
2023-07-03T14:51:09.071Z,57.30
2023-07-03T14:53:36.450Z,57.10
2023-07-03T14:56:04.197Z,56.90
2023-07-03T14:58:50.387Z,56.60
2023-07-03T15:01:17.812Z,56.10
2023-07-03T15:03:45.520Z,56.30
2023-07-03T15:06:12.915Z,56.20
2023-07-03T15:08:40.143Z,56.30
2023-07-03T15:11:20.929Z,56.30
2023-07-03T15:13:48.314Z,56.30
2023-07-03T15:16:34.712Z,56.40
2023-07-03T15:19:06.500Z,56.30
2023-07-03T15:21:42.662Z,56.40
2023-07-03T15:24:10.797Z,56.40
2023-07-03T15:26:39.641Z,56.50
2023-07-03T15:29:07.061Z,56.60
2023-07-03T15:31:34.772Z,56.60
2023-07-03T15:34:02.822Z,56.40
2023-07-03T15:36:30.122Z,56.50
2023-07-03T15:38:58.765Z,56.50
2023-07-03T15:41:29.665Z,56.40
2023-07-03T15:43:58.426Z,56.40
2023-07-03T15:46:26.067Z,56.60
2023-07-03T15:48:53.545Z,57.00
2023-07-03T15:51:22.398Z,57.10
2023-07-03T15:53:49.824Z,57.00
2023-07-03T15:56:22.232Z,57.00
2023-07-03T15:58:55.068Z,56.90
2023-07-03T16:01:25.371Z,56.90
2023-07-03T16:03:56.969Z,56.80
2023-07-03T16:06:27.336Z,56.80
2023-07-03T16:08:58.182Z,56.80
2023-07-03T16:11:27.448Z,56.80
2023-07-03T16:13:57.746Z,57.20
2023-07-03T16:16:26.804Z,57.20
2023-07-03T16:19:00.493Z,57.40
2023-07-03T16:21:34.814Z,57.40
2023-07-03T16:24:04.896Z,57.40
2023-07-03T16:26:32.654Z,57.60
2023-07-03T16:29:00.308Z,57.60
2023-07-03T16:31:31.397Z,57.70
2023-07-03T16:34:04.407Z,57.50
2023-07-03T16:36:33.152Z,57.40
2023-07-03T16:39:04.778Z,57.50
2023-07-03T16:41:38.163Z,57.50
2023-07-03T16:44:05.788Z,57.70
2023-07-03T16:46:35.243Z,57.60
2023-07-03T16:49:24.314Z,57.60
2023-07-03T16:51:51.878Z,57.60
2023-07-03T16:54:19.213Z,57.40
2023-07-03T16:56:47.014Z,57.10
2023-07-03T16:59:14.265Z,56.80
2023-07-03T17:01:41.660Z,57.10
2023-07-03T17:04:09.121Z,56.30
2023-07-03T17:06:36.679Z,56.20
2023-07-03T17:09:09.916Z,56.00
2023-07-03T17:11:39.973Z,55.90
2023-07-03T17:14:07.487Z,55.60
2023-07-03T17:16:34.841Z,55.70
2023-07-03T17:19:02.533Z,55.90
2023-07-03T17:21:48.763Z,55.90
2023-07-03T17:24:37.260Z,55.80
2023-07-03T17:28:01.960Z,55.70
2023-07-03T17:30:29.529Z,55.70
2023-07-03T17:32:57.197Z,56.00
2023-07-03T17:35:25.713Z,56.30
2023-07-03T17:37:54.277Z,56.20
2023-07-03T17:40:21.733Z,56.30
2023-07-03T17:42:48.999Z,56.30
2023-07-03T17:45:16.706Z,56.20
2023-07-03T17:47:44.310Z,55.90
2023-07-03T17:50:11.995Z,56.00
2023-07-03T17:52:39.438Z,56.10
2023-07-03T17:55:07.989Z,56.20
2023-07-03T17:57:35.265Z,56.30
2023-07-03T18:00:02.733Z,56.60
2023-07-03T18:02:30.569Z,56.90
2023-07-03T18:04:57.866Z,57.30
2023-07-03T18:07:25.718Z,57.50
2023-07-03T18:09:53.107Z,57.70
2023-07-03T18:12:20.458Z,57.80
2023-07-03T18:14:47.870Z,58.20
2023-07-03T18:17:15.229Z,58.30
2023-07-03T18:19:42.717Z,58.40
2023-07-03T18:22:09.981Z,58.70
2023-07-03T18:24:37.298Z,59.00
2023-07-03T18:27:05.028Z,59.30
2023-07-03T18:29:32.399Z,59.60
2023-07-03T18:32:00.029Z,59.80
2023-07-03T18:34:27.638Z,59.90
2023-07-03T18:36:54.908Z,60.20
2023-07-03T18:39:22.532Z,60.30
2023-07-03T18:41:50.830Z,60.70
2023-07-03T18:44:18.306Z,61.10
2023-07-03T18:46:47.260Z,61.30
2023-07-03T18:49:16.131Z,61.50
2023-07-03T18:51:47.833Z,61.50
2023-07-03T18:54:16.902Z,61.40
2023-07-03T18:56:44.624Z,61.40
2023-07-03T18:59:12.622Z,61.50
2023-07-03T19:01:42.348Z,61.70
2023-07-03T19:04:09.754Z,61.70
2023-07-03T19:06:37.163Z,61.80
2023-07-03T19:09:06.365Z,62.00
2023-07-03T19:11:33.849Z,62.30
2023-07-03T19:14:01.276Z,62.50
2023-07-03T19:16:29.897Z,62.80
2023-07-03T19:18:57.786Z,63.00
2023-07-03T19:21:25.156Z,63.30
2023-07-03T19:23:53.636Z,63.70
2023-07-03T19:26:20.925Z,64.00
2023-07-03T19:28:50.766Z,64.40
2023-07-03T19:32:14.368Z,64.70
2023-07-03T19:34:44.422Z,65.50
2023-07-03T19:37:12.432Z,65.20
2023-07-03T19:39:39.859Z,65.50
2023-07-03T19:42:08.378Z,65.40
2023-07-03T19:44:35.729Z,65.40
2023-07-03T19:47:03.105Z,65.40
2023-07-03T19:49:32.229Z,65.60
2023-07-03T19:51:59.912Z,65.80
2023-07-03T19:54:27.256Z,65.90
2023-07-03T19:59:35.832Z,66.10
2023-07-03T20:02:03.646Z,66.10
2023-07-03T20:04:32.050Z,66.50
2023-07-03T20:07:00.230Z,66.70
2023-07-03T20:09:28.785Z,67.10
2023-07-03T20:11:56.474Z,67.40
2023-07-03T20:14:24.099Z,67.90
2023-07-03T20:16:51.592Z,68.20
2023-07-03T20:19:39.733Z,68.50
2023-07-03T20:22:07.376Z,69.40
2023-07-03T20:24:34.827Z,69.20
2023-07-03T20:27:02.197Z,69.70
2023-07-03T20:29:29.647Z,70.10
2023-07-03T20:31:57.236Z,70.70
2023-07-03T20:34:50.780Z,70.90
2023-07-03T20:37:18.276Z,72.10
2023-07-03T20:39:48.636Z,71.70
2023-07-03T20:42:16.044Z,72.10
2023-07-03T20:44:45.271Z,72.50
2023-07-03T20:47:13.989Z,72.90
2023-07-03T20:49:42.749Z,73.40
2023-07-03T20:52:10.710Z,73.60
2023-07-03T20:54:44.511Z,74.10
2023-07-03T20:57:12.248Z,74.40
2023-07-03T20:59:39.597Z,75.40
2023-07-03T21:02:07.575Z,75.00
2023-07-03T21:04:36.375Z,75.10
2023-07-03T21:07:03.989Z,75.20
2023-07-03T21:09:31.265Z,75.40
2023-07-03T21:11:59.317Z,75.40
2023-07-03T21:14:26.799Z,75.50
2023-07-03T21:16:54.258Z,75.80
2023-07-03T21:19:21.559Z,75.90
2023-07-03T21:21:48.924Z,76.60
2023-07-03T21:24:16.194Z,76.70
2023-07-03T21:26:43.529Z,76.90
2023-07-03T21:29:10.863Z,77.10
2023-07-03T21:31:38.501Z,77.40
2023-07-03T21:34:05.986Z,77.80
2023-07-03T21:36:33.806Z,78.20
2023-07-03T21:39:05.307Z,78.60
2023-07-03T21:41:36.651Z,79.20
2023-07-03T21:44:16.460Z,79.50
2023-07-03T21:46:44.578Z,80.20
2023-07-03T21:49:15.304Z,80.10
2023-07-03T21:51:42.942Z,80.90
2023-07-03T21:54:10.692Z,81.30
2023-07-03T21:56:39.777Z,81.50
2023-07-03T21:59:07.286Z,82.00
2023-07-03T22:01:41.021Z,82.30
2023-07-03T22:04:09.935Z,82.70
2023-07-03T22:06:37.503Z,82.90
2023-07-03T22:09:05.041Z,83.10
2023-07-03T22:11:32.438Z,83.50
2023-07-03T22:14:00.239Z,83.80
2023-07-03T22:16:27.658Z,84.10
2023-07-03T22:18:55.329Z,84.40
2023-07-03T22:21:22.721Z,84.70
2023-07-03T22:23:53.055Z,85.00
2023-07-03T22:26:22.073Z,85.50
2023-07-03T22:28:49.581Z,85.50
2023-07-03T22:31:17.563Z,85.50
2023-07-03T22:33:45.144Z,86.00
2023-07-03T22:36:14.042Z,86.20
2023-07-03T22:38:41.283Z,86.70
2023-07-03T22:41:11.035Z,86.70
2023-07-03T22:43:38.679Z,87.10
2023-07-03T22:46:09.140Z,87.20
2023-07-03T22:48:43.672Z,87.40
2023-07-03T22:51:11.568Z,87.80
2023-07-03T22:53:39.189Z,87.80
2023-07-03T22:56:07.969Z,87.90
2023-07-03T22:58:35.899Z,88.30
2023-07-03T23:01:13.734Z,88.80
2023-07-03T23:03:42.211Z,89.60
2023-07-03T23:06:10.286Z,89.30
2023-07-03T23:08:38.150Z,89.70
2023-07-03T23:11:06.404Z,90.00
2023-07-03T23:13:34.005Z,90.00
2023-07-03T23:16:10.679Z,90.20
2023-07-03T23:18:42.438Z,90.40
2023-07-03T23:21:16.975Z,90.60
2023-07-03T23:23:45.658Z,90.80
2023-07-03T23:26:16.405Z,90.80
2023-07-03T23:28:46.011Z,91.00
2023-07-03T23:31:18.047Z,91.30
2023-07-03T23:33:51.624Z,91.40
2023-07-03T23:36:21.678Z,91.30
2023-07-03T23:38:50.448Z,91.60
2023-07-03T23:41:19.592Z,91.60
2023-07-03T23:43:49.696Z,91.70
2023-07-03T23:46:18.405Z,91.90
2023-07-03T23:48:46.343Z,92.00
2023-07-03T23:51:13.679Z,92.30
2023-07-03T23:53:46.221Z,92.40
2023-07-03T23:56:17.206Z,92.60
2023-07-03T23:58:45.888Z,92.60
